Time;durP1;ratioP1;P1;durP2;ratioP2;P2;SDS_P1;SDS_P2;PMS_P1;PMS_P2;Temp;Humidity;BMP_temperature;BMP_pressure;BME280_temperature;BME280_humidity;BME280_pressure;Samples;Min_cycle;Max_cycle;Signal;HPM_P1;HPM_P2
2022/08/04 00:01:33;;;;;;;1999.90;999.90;;;;;;;;;;5049152;28;20414;-76
2022/08/04 00:04:06;;;;;;;1999.90;999.90;;;;;;;;;;5049556;28;20516;-75
2022/08/04 00:06:40;;;;;;;1999.90;999.90;;;;;;;;;;5050053;28;20934;-76
2022/08/04 00:09:10;;;;;;;1999.90;999.90;;;;;;;;;;5032595;28;20391;-77
2022/08/04 00:11:38;;;;;;;1999.90;999.90;;;;;;;;;;5067020;28;20411;-76
2022/08/04 00:14:10;;;;;;;1999.90;999.90;;;;;;;;;;5031028;28;20412;-78
2022/08/04 00:16:40;;;;;;;1999.90;999.90;;;;;;;;;;5049210;28;20465;-77
2022/08/04 00:19:11;;;;;;;1999.90;999.90;;;;;;;;;;5049435;28;21239;-76
2022/08/04 00:21:44;;;;;;;1999.90;999.90;;;;;;;;;;5048761;28;20410;-78
2022/08/04 00:24:12;;;;;;;1999.90;999.90;;;;;;;;;;5067645;28;20469;-78
2022/08/04 00:26:40;;;;;;;1999.90;999.90;;;;;;;;;;5067593;28;20525;-77
2022/08/04 00:29:08;;;;;;;1999.90;999.90;;;;;;;;;;5032985;28;20438;-77
2022/08/04 00:31:36;;;;;;;1999.90;999.90;;;;;;;;;;5033284;28;20482;-77
2022/08/04 00:34:26;;;;;;;1999.90;999.90;;;;;;;;;;5049341;28;20377;-78
2022/08/04 00:36:55;;;;;;;1999.90;999.90;;;;;;;;;;5042881;28;20391;-77
2022/08/04 00:39:23;;;;;;;1999.90;999.90;;;;;;;;;;5054594;28;20394;-76
2022/08/04 00:42:05;;;;;;;1999.90;999.90;;;;;;;;;;5068951;28;20411;-79
2022/08/04 00:44:37;;;;;;;1999.90;999.90;;;;;;;;;;5049515;28;20466;-77
2022/08/04 00:47:12;;;;;;;1999.90;999.90;;;;;;;;;;5066992;28;20415;-78
2022/08/04 00:49:47;;;;;;;1999.90;999.90;;;;;;;;;;5047793;28;20415;-77
2022/08/04 00:52:23;;;;;;;1999.90;999.90;;;;;;;;;;5067096;28;20437;-77
2022/08/04 00:55:03;;;;;;;1999.90;999.90;;;;;;;;;;5067704;28;20397;-79
2022/08/04 00:57:42;;;;;;;1999.90;999.90;;;;;;;;;;5046491;28;20509;-79
2022/08/04 01:00:12;;;;;;;1999.90;999.90;;;;;;;;;;5048123;28;20386;-77
2022/08/04 01:02:46;;;;;;;1999.90;999.90;;;;;;;;;;5048031;28;20453;-77
2022/08/04 01:05:20;;;;;;;1999.90;999.90;;;;;;;;;;5048655;28;20413;-78
2022/08/04 01:07:54;;;;;;;1999.90;999.90;;;;;;;;;;5066326;28;20482;-79
2022/08/04 01:10:24;;;;;;;1999.90;999.90;;;;;;;;;;5047995;28;20407;-78
2022/08/04 01:13:01;;;;;;;1999.90;999.90;;;;;;;;;;5031653;28;20401;-77
2022/08/04 01:15:39;;;;;;;1999.90;999.90;;;;;;;;;;5066575;28;21154;-77
2022/08/04 01:18:35;;;;;;;1999.90;999.90;;;;;;;;;;5067413;28;20417;-79
2022/08/04 01:21:17;;;;;;;1999.90;999.90;;;;;;;;;;5066148;28;20875;-78
2022/08/04 01:23:50;;;;;;;1999.90;999.90;;;;;;;;;;5048399;28;20417;-78
2022/08/04 01:26:30;;;;;;;1999.90;999.90;;;;;;;;;;5048218;28;20391;-77
2022/08/04 01:29:13;;;;;;;1999.90;999.90;;;;;;;;;;5066456;28;20915;-76
2022/08/04 01:31:57;;;;;;;1999.90;999.90;;;;;;;;;;5066916;28;20894;-78
2022/08/04 01:34:28;;;;;;;1999.90;999.90;;;;;;;;;;5063687;28;20500;-78
2022/08/04 01:36:58;;;;;;;1999.90;999.90;;;;;;;;;;5066046;28;20417;-77
2022/08/04 01:39:42;;;;;;;1999.90;999.90;;;;;;;;;;5047869;28;20406;-78
2022/08/04 01:42:11;;;;;;;1999.90;999.90;;;;;;;;;;5047761;28;20500;-78
2022/08/04 01:45:00;;;;;;;1999.90;999.90;;;;;;;;;;5064490;28;21786;-79
2022/08/04 01:47:29;;;;;;;1999.90;999.90;;;;;;;;;;5065680;28;20394;-79
2022/08/04 01:50:01;;;;;;;1999.90;999.90;;;;;;;;;;5066000;28;22656;-77
2022/08/04 01:52:31;;;;;;;1999.90;999.90;;;;;;;;;;5048243;28;20391;-77
2022/08/04 01:54:59;;;;;;;1999.90;999.90;;;;;;;;;;5048144;28;20486;-77
2022/08/04 01:57:28;;;;;;;1999.90;999.90;;;;;;;;;;5047921;28;21300;-79
2022/08/04 02:00:08;;;;;;;1999.90;999.90;;;;;;;;;;5063167;28;20415;-78
2022/08/04 02:02:38;;;;;;;1999.90;999.90;;;;;;;;;;5045871;28;20418;-79
2022/08/04 02:05:06;;;;;;;1999.90;999.90;;;;;;;;;;5067024;28;20414;-77
2022/08/04 02:07:45;;;;;;;1999.90;999.90;;;;;;;;;;5034308;28;20406;-78
2022/08/04 02:10:19;;;;;;;1999.90;999.90;;;;;;;;;;5067128;28;20910;-77
2022/08/04 02:12:52;;;;;;;1999.90;999.90;;;;;;;;;;5069119;28;20387;-78
2022/08/04 02:15:26;;;;;;;1999.90;999.90;;;;;;;;;;5069389;28;20414;-78
2022/08/04 02:17:59;;;;;;;1999.90;999.90;;;;;;;;;;5052057;28;20455;-78
2022/08/04 02:20:29;;;;;;;1999.90;999.90;;;;;;;;;;5051418;28;20465;-78
2022/08/04 02:22:58;;;;;;;1999.90;999.90;;;;;;;;;;5051677;28;20680;-77
2022/08/04 02:25:27;;;;;;;1999.90;999.90;;;;;;;;;;5069913;28;20498;-76
2022/08/04 02:27:58;;;;;;;1999.90;999.90;;;;;;;;;;5053141;28;20529;-78
2022/08/04 02:30:33;;;;;;;1999.90;999.90;;;;;;;;;;5051550;28;20453;-78
2022/08/04 02:33:02;;;;;;;1999.90;999.90;;;;;;;;;;5050224;28;20395;-77
2022/08/04 02:35:34;;;;;;;1999.90;999.90;;;;;;;;;;5051056;28;20888;-77
2022/08/04 02:38:11;;;;;;;1999.90;999.90;;;;;;;;;;5068955;28;20673;-78
2022/08/04 02:40:40;;;;;;;1999.90;999.90;;;;;;;;;;5068750;28;20391;-79
2022/08/04 02:43:09;;;;;;;1999.90;999.90;;;;;;;;;;5068834;28;20500;-78
2022/08/04 02:45:41;;;;;;;1999.90;999.90;;;;;;;;;;5068811;28;20773;-79
2022/08/04 02:48:10;;;;;;;1999.90;999.90;;;;;;;;;;5051019;28;20387;-77
2022/08/04 02:50:59;;;;;;;1999.90;999.90;;;;;;;;;;5051730;28;20365;-77
2022/08/04 02:53:30;;;;;;;1999.90;999.90;;;;;;;;;;5052784;28;20496;-76
2022/08/04 02:56:02;;;;;;;1999.90;999.90;;;;;;;;;;5051154;28;20879;-78
2022/08/04 02:58:34;;;;;;;1999.90;999.90;;;;;;;;;;5066912;28;20398;-76
2022/08/04 03:01:03;;;;;;;1999.90;999.90;;;;;;;;;;5033341;28;20441;-77
2022/08/04 03:03:34;;;;;;;1999.90;999.90;;;;;;;;;;5051041;28;20505;-77
2022/08/04 03:06:12;;;;;;;1999.90;999.90;;;;;;;;;;5051157;28;20499;-78
2022/08/04 03:08:54;;;;;;;1999.90;999.90;;;;;;;;;;5067905;28;20398;-76
2022/08/04 03:11:28;;;;;;;1999.90;999.90;;;;;;;;;;5050036;28;20481;-77
2022/08/04 03:14:05;;;;;;;1999.90;999.90;;;;;;;;;;5066936;28;20390;-78
2022/08/04 03:16:54;;;;;;;1999.90;999.90;;;;;;;;;;5050193;28;20405;-78
2022/08/04 03:19:30;;;;;;;1999.90;999.90;;;;;;;;;;5034314;28;20967;-78
2022/08/04 03:22:09;;;;;;;1999.90;999.90;;;;;;;;;;5068238;28;20393;-77
2022/08/04 03:24:55;;;;;;;1999.90;999.90;;;;;;;;;;5067922;28;20395;-78
2022/08/04 03:27:42;;;;;;;1999.90;999.90;;;;;;;;;;5033416;28;20483;-78
2022/08/04 03:30:13;;;;;;;1999.90;999.90;;;;;;;;;;5032914;28;20395;-77
2022/08/04 03:32:57;;;;;;;1999.90;999.90;;;;;;;;;;5033154;28;20399;-77
2022/08/04 03:35:40;;;;;;;1999.90;999.90;;;;;;;;;;5049875;28;20391;-78
2022/08/04 03:38:30;;;;;;;1999.90;999.90;;;;;;;;;;5046963;28;20446;-80
2022/08/04 03:41:11;;;;;;;1999.90;999.90;;;;;;;;;;5034118;28;20404;-78
2022/08/04 03:43:46;;;;;;;1999.90;999.90;;;;;;;;;;5049758;28;20434;-76
2022/08/04 03:46:47;;;;;;;1999.90;999.90;;;;;;;;;;5049794;28;20390;-78
2022/08/04 03:49:42;;;;;;;1999.90;999.90;;;;;;;;;;5059130;28;20501;-78
2022/08/04 03:55:16;;;;;;;1999.90;999.90;;;;;;;;;;5050184;28;20397;-79
2022/08/04 03:57:52;;;;;;;1999.90;999.90;;;;;;;;;;5067096;28;20449;-78
2022/08/04 04:00:20;;;;;;;1999.90;999.90;;;;;;;;;;5067841;28;20525;-78
2022/08/04 04:03:06;;;;;;;1999.90;999.90;;;;;;;;;;5061229;28;20393;-77
2022/08/04 04:05:57;;;;;;;1999.90;999.90;;;;;;;;;;5047279;28;20457;-78
2022/08/04 04:08:40;;;;;;;1999.90;999.90;;;;;;;;;;5048729;28;20843;-77
2022/08/04 04:11:23;;;;;;;1999.90;999.90;;;;;;;;;;5048631;28;20398;-76
2022/08/04 04:14:05;;;;;;;1999.90;999.90;;;;;;;;;;5066223;28;20543;-78
2022/08/04 04:16:37;;;;;;;1999.90;999.90;;;;;;;;;;5067067;28;21255;-76
2022/08/04 04:19:30;;;;;;;1999.90;999.90;;;;;;;;;;5067389;28;20394;-77
2022/08/04 04:22:05;;;;;;;1999.90;999.90;;;;;;;;;;5033335;28;20482;-77
2022/08/04 04:24:39;;;;;;;1999.90;999.90;;;;;;;;;;5049202;28;20405;-78
2022/08/04 04:27:16;;;;;;;1999.90;999.90;;;;;;;;;;5048682;28;20391;-77
2022/08/04 04:30:00;;;;;;;1999.90;999.90;;;;;;;;;;5067153;28;20394;-77
2022/08/04 04:32:34;;;;;;;1999.90;999.90;;;;;;;;;;5048484;28;20744;-78
2022/08/04 04:35:11;;;;;;;1999.90;999.90;;;;;;;;;;5049093;28;20856;-77
2022/08/04 04:37:55;;;;;;;1999.90;999.90;;;;;;;;;;5048816;28;20419;-78
2022/08/04 04:40:32;;;;;;;1999.90;999.90;;;;;;;;;;5048903;28;20462;-76
2022/08/04 04:43:13;;;;;;;1999.90;999.90;;;;;;;;;;5068067;28;20409;-77
2022/08/04 04:45:46;;;;;;;1999.90;999.90;;;;;;;;;;5063144;28;20391;-77
2022/08/04 04:48:17;;;;;;;1999.90;999.90;;;;;;;;;;5049531;28;20994;-78
2022/08/04 04:50:51;;;;;;;1999.90;999.90;;;;;;;;;;5049640;28;20387;-76
2022/08/04 04:53:24;;;;;;;1999.90;999.90;;;;;;;;;;5065740;28;20430;-77
2022/08/04 04:55:56;;;;;;;1999.90;999.90;;;;;;;;;;5068471;28;20421;-79
2022/08/04 04:58:25;;;;;;;1999.90;999.90;;;;;;;;;;5050968;28;21259;-76
2022/08/04 05:01:08;;;;;;;1999.90;999.90;;;;;;;;;;5072371;28;20391;-76
2022/08/04 05:03:42;;;;;;;1999.90;999.90;;;;;;;;;;5053692;28;20406;-76
2022/08/04 05:06:26;;;;;;;1999.90;999.90;;;;;;;;;;5037132;28;20482;-76
2022/08/04 05:09:03;;;;;;;1999.90;999.90;;;;;;;;;;5049638;28;20947;-77
2022/08/04 05:11:49;;;;;;;1999.90;999.90;;;;;;;;;;5043356;28;20438;-77
2022/08/04 05:14:18;;;;;;;1999.90;999.90;;;;;;;;;;5053878;28;20394;-78
2022/08/04 05:17:10;;;;;;;1999.90;999.90;;;;;;;;;;5054981;28;20402;-77
2022/08/04 05:19:45;;;;;;;1999.90;999.90;;;;;;;;;;5071172;28;20432;-79
2022/08/04 05:22:18;;;;;;;1999.90;999.90;;;;;;;;;;5051833;28;20399;-77
2022/08/04 05:24:49;;;;;;;1999.90;999.90;;;;;;;;;;5072184;28;20407;-76
2022/08/04 05:27:20;;;;;;;1999.90;999.90;;;;;;;;;;5071974;28;20398;-76
2022/08/04 05:29:51;;;;;;;1999.90;999.90;;;;;;;;;;5070389;28;20383;-77
2022/08/04 05:32:23;;;;;;;1999.90;999.90;;;;;;;;;;5054636;28;20399;-78
2022/08/04 05:34:53;;;;;;;1999.90;999.90;;;;;;;;;;5051889;28;20398;-77
2022/08/04 05:37:22;;;;;;;1999.90;999.90;;;;;;;;;;5052808;28;20426;-78
2022/08/04 05:39:58;;;;;;;1999.90;999.90;;;;;;;;;;5069043;28;21155;-77
2022/08/04 05:42:26;;;;;;;1999.90;999.90;;;;;;;;;;5052409;28;20414;-77
2022/08/04 05:44:55;;;;;;;1999.90;999.90;;;;;;;;;;5056389;28;20465;-78
2022/08/04 05:47:24;;;;;;;1999.90;999.90;;;;;;;;;;5056270;28;20387;-78
2022/08/04 05:49:52;;;;;;;1999.90;999.90;;;;;;;;;;5053118;28;20473;-78
2022/08/04 05:52:30;;;;;;;1999.90;999.90;;;;;;;;;;5069793;28;20398;-79
2022/08/04 05:55:00;;;;;;;1999.90;999.90;;;;;;;;;;5071412;28;20409;-76
2022/08/04 05:57:28;;;;;;;1999.90;999.90;;;;;;;;;;5053050;28;20391;-78
2022/08/04 05:59:58;;;;;;;1999.90;999.90;;;;;;;;;;5053349;28;21133;-78
2022/08/04 06:02:27;;;;;;;1999.90;999.90;;;;;;;;;;5051720;28;20355;-79
2022/08/04 06:04:56;;;;;;;1999.90;999.90;;;;;;;;;;5051855;28;20511;-77
2022/08/04 06:07:25;;;;;;;1999.90;999.90;;;;;;;;;;5051330;28;20440;-78
2022/08/04 06:09:53;;;;;;;1999.90;999.90;;;;;;;;;;5050915;28;20412;-77
2022/08/04 06:12:25;;;;;;;1999.90;999.90;;;;;;;;;;5069733;28;20395;-77
2022/08/04 06:14:54;;;;;;;1999.90;999.90;;;;;;;;;;5051488;28;20446;-77
2022/08/04 06:17:30;;;;;;;1999.90;999.90;;;;;;;;;;5088876;22;20869;-75
2022/08/04 06:20:18;;;;;;;1999.90;999.90;;;;;;;;;;5082020;28;20469;-76
2022/08/04 06:22:52;;;;;;;1999.90;999.90;;;;;;;;;;5055504;28;20397;-76
2022/08/04 06:25:21;;;;;;;1999.90;999.90;;;;;;;;;;5060764;28;20533;-76
2022/08/04 06:27:51;;;;;;;1999.90;999.90;;;;;;;;;;5062471;28;21203;-77
2022/08/04 06:30:19;;;;;;;1999.90;999.90;;;;;;;;;;5076903;28;20937;-77
2022/08/04 06:32:54;;;;;;;1999.90;999.90;;;;;;;;;;5082045;28;20415;-77
2022/08/04 06:35:35;;;;;;;1999.90;999.90;;;;;;;;;;5084376;28;20407;-77
2022/08/04 06:38:03;;;;;;;1999.90;999.90;;;;;;;;;;5085881;28;20391;-77
2022/08/04 06:40:32;;;;;;;1999.90;999.90;;;;;;;;;;5086259;28;20460;-78
2022/08/04 06:43:07;;;;;;;1999.90;999.90;;;;;;;;;;5077555;28;20393;-77
2022/08/04 06:45:37;;;;;;;1999.90;999.90;;;;;;;;;;5102057;28;20407;-76
2022/08/04 06:48:06;;;;;;;1999.90;999.90;;;;;;;;;;5079410;28;20397;-75
2022/08/04 06:50:35;;;;;;;1999.90;999.90;;;;;;;;;;5082542;28;21092;-77
2022/08/04 06:53:23;;;;;;;1999.90;999.90;;;;;;;;;;5078856;28;20409;-76
2022/08/04 06:55:51;;;;;;;1999.90;999.90;;;;;;;;;;5057313;28;20500;-75
2022/08/04 06:58:21;;;;;;;1999.90;999.90;;;;;;;;;;5095469;28;20491;-76
2022/08/04 07:00:49;;;;;;;1999.90;999.90;;;;;;;;;;5094614;28;20452;-77
2022/08/04 07:03:18;;;;;;;1999.90;999.90;;;;;;;;;;5064484;28;20404;-77
2022/08/04 07:05:46;;;;;;;1999.90;999.90;;;;;;;;;;5100100;28;20425;-77
2022/08/04 07:08:14;;;;;;;1999.90;999.90;;;;;;;;;;5083517;28;20376;-76
2022/08/04 07:10:43;;;;;;;1999.90;999.90;;;;;;;;;;5073595;28;20443;-77
2022/08/04 07:13:11;;;;;;;1999.90;999.90;;;;;;;;;;5085124;28;20467;-77
2022/08/04 07:15:43;;;;;;;1999.90;999.90;;;;;;;;;;5077974;28;20428;-77
2022/08/04 07:18:11;;;;;;;1999.90;999.90;;;;;;;;;;5100302;28;20875;-77
2022/08/04 07:20:40;;;;;;;1999.90;999.90;;;;;;;;;;5074123;28;20419;-77
2022/08/04 07:23:10;;;;;;;1999.90;999.90;;;;;;;;;;5082596;28;21306;-77
2022/08/04 07:25:37;;;;;;;1999.90;999.90;;;;;;;;;;5063432;28;20403;-77
2022/08/04 07:28:26;;;;;;;1999.90;999.90;;;;;;;;;;5082106;28;20379;-77
2022/08/04 07:30:56;;;;;;;1999.90;999.90;;;;;;;;;;5079283;28;20387;-77
2022/08/04 07:33:24;;;;;;;1999.90;999.90;;;;;;;;;;5084389;28;20485;-77
2022/08/04 07:35:53;;;;;;;1999.90;999.90;;;;;;;;;;5097990;28;20435;-77
2022/08/04 07:38:37;;;;;;;1999.90;999.90;;;;;;;;;;5100149;28;20470;-77
2022/08/04 07:41:19;;;;;;;1999.90;999.90;;;;;;;;;;5062618;28;22038;-77
2022/08/04 07:44:04;;;;;;;1999.90;999.90;;;;;;;;;;5097029;28;20973;-79
2022/08/04 07:46:33;;;;;;;1999.90;999.90;;;;;;;;;;5076878;28;20417;-77
2022/08/04 07:49:01;;;;;;;1999.90;999.90;;;;;;;;;;5101902;28;20596;-77
2022/08/04 07:51:29;;;;;;;1999.90;999.90;;;;;;;;;;5083714;28;20453;-76
2022/08/04 07:53:57;;;;;;;1999.90;999.90;;;;;;;;;;5098798;28;20387;-75
2022/08/04 07:56:26;;;;;;;1999.90;999.90;;;;;;;;;;5072941;28;20397;-76
2022/08/04 07:58:54;;;;;;;1999.90;999.90;;;;;;;;;;5085598;28;20388;-76
2022/08/04 08:01:21;;;;;;;1999.90;999.90;;;;;;;;;;5095381;28;21096;-75
2022/08/04 08:03:51;;;;;;;1999.90;999.90;;;;;;;;;;5099147;28;21154;-75
2022/08/04 08:06:19;;;;;;;1999.90;999.90;;;;;;;;;;5081548;28;20885;-76
2022/08/04 08:09:00;;;;;;;1999.90;999.90;;;;;;;;;;5088759;28;20389;-77
2022/08/04 08:11:41;;;;;;;1999.90;999.90;;;;;;;;;;5095943;28;20389;-78
2022/08/04 08:14:29;;;;;;;1999.90;999.90;;;;;;;;;;5078204;28;20391;-78
2022/08/04 08:16:58;;;;;;;1999.90;999.90;;;;;;;;;;5079756;28;20473;-77
2022/08/04 08:19:27;;;;;;;1999.90;999.90;;;;;;;;;;5085117;28;20393;-78
2022/08/04 08:21:55;;;;;;;1999.90;999.90;;;;;;;;;;5098436;28;20391;-77
2022/08/04 08:24:26;;;;;;;1999.90;999.90;;;;;;;;;;5084844;28;20471;-77
2022/08/04 08:26:55;;;;;;;1999.90;999.90;;;;;;;;;;5096429;28;20405;-78
2022/08/04 08:29:23;;;;;;;1999.90;999.90;;;;;;;;;;5075383;28;20435;-77
2022/08/04 08:31:51;;;;;;;1999.90;999.90;;;;;;;;;;5097040;28;20387;-78
2022/08/04 08:34:25;;;;;;;1999.90;999.90;;;;;;;;;;5079601;28;21018;-78
2022/08/04 08:37:01;;;;;;;1999.90;999.90;;;;;;;;;;5087278;28;20397;-75
2022/08/04 08:39:33;;;;;;;1999.90;999.90;;;;;;;;;;5074686;28;20396;-76
2022/08/04 08:42:14;;;;;;;1999.90;999.90;;;;;;;;;;5073755;28;20385;-76
2022/08/04 08:45:12;;;;;;;1999.90;999.90;;;;;;;;;;5076820;28;20585;-76
2022/08/04 08:47:50;;;;;;;1999.90;999.90;;;;;;;;;;5079453;28;20410;-76
2022/08/04 08:50:51;;;;;;;1999.90;999.90;;;;;;;;;;5076834;28;20380;-77
2022/08/04 08:53:33;;;;;;;1999.90;999.90;;;;;;;;;;5089269;28;20891;-77
2022/08/04 08:56:16;;;;;;;1999.90;999.90;;;;;;;;;;5081295;28;20429;-77
2022/08/04 08:59:03;;;;;;;1999.90;999.90;;;;;;;;;;5061893;28;20408;-76
2022/08/04 09:01:44;;;;;;;1999.90;999.90;;;;;;;;;;5082827;28;20472;-76
2022/08/04 09:04:36;;;;;;;1999.90;999.90;;;;;;;;;;5080654;28;20436;-76
2022/08/04 09:07:13;;;;;;;1999.90;999.90;;;;;;;;;;5067795;28;20401;-76
2022/08/04 09:09:47;;;;;;;1999.90;999.90;;;;;;;;;;5093152;28;20403;-77
2022/08/04 09:12:17;;;;;;;1999.90;999.90;;;;;;;;;;5084195;28;20389;-76
2022/08/04 09:14:54;;;;;;;1999.90;999.90;;;;;;;;;;5098283;28;20389;-76
2022/08/04 09:17:26;;;;;;;1999.90;999.90;;;;;;;;;;5064866;28;20451;-77
2022/08/04 09:19:57;;;;;;;1999.90;999.90;;;;;;;;;;5081962;28;20377;-76
2022/08/04 09:22:28;;;;;;;1999.90;999.90;;;;;;;;;;5086403;28;20387;-77
2022/08/04 09:25:03;;;;;;;1999.90;999.90;;;;;;;;;;5083571;28;20373;-76
2022/08/04 09:27:35;;;;;;;1999.90;999.90;;;;;;;;;;5088027;28;20444;-76
2022/08/04 09:30:03;;;;;;;1999.90;999.90;;;;;;;;;;5106738;28;20409;-76
2022/08/04 09:32:34;;;;;;;1999.90;999.90;;;;;;;;;;5087884;28;20368;-77
2022/08/04 09:35:09;;;;;;;1999.90;999.90;;;;;;;;;;5103699;28;20395;-77
2022/08/04 09:37:46;;;;;;;1999.90;999.90;;;;;;;;;;5086018;28;20408;-76
2022/08/04 09:40:22;;;;;;;1999.90;999.90;;;;;;;;;;5099763;28;20449;-77
2022/08/04 09:43:17;;;;;;;1999.90;999.90;;;;;;;;;;5093206;28;20434;-77
2022/08/04 09:45:50;;;;;;;1999.90;999.90;;;;;;;;;;5075421;28;20404;-77
2022/08/04 09:48:24;;;;;;;1999.90;999.90;;;;;;;;;;5094734;28;20399;-76
2022/08/04 09:50:56;;;;;;;1999.90;999.90;;;;;;;;;;5080023;28;20866;-77
2022/08/04 09:53:30;;;;;;;1999.90;999.90;;;;;;;;;;5074024;28;20987;-77
2022/08/04 09:56:06;;;;;;;1999.90;999.90;;;;;;;;;;5069050;28;20452;-77
2022/08/04 09:58:40;;;;;;;1999.90;999.90;;;;;;;;;;5090327;28;20394;-77
2022/08/04 10:01:09;;;;;;;1999.90;999.90;;;;;;;;;;5071955;28;20381;-78
2022/08/04 10:03:38;;;;;;;1999.90;999.90;;;;;;;;;;5077754;28;20386;-77
2022/08/04 10:06:10;;;;;;;1999.90;999.90;;;;;;;;;;5081279;28;20399;-77
2022/08/04 10:08:54;;;;;;;1999.90;999.90;;;;;;;;;;5053970;28;20364;-77
2022/08/04 10:11:32;;;;;;;1999.90;999.90;;;;;;;;;;5091707;28;20519;-76
2022/08/04 10:14:02;;;;;;;1999.90;999.90;;;;;;;;;;5091584;28;20391;-77
2022/08/04 10:16:35;;;;;;;1999.90;999.90;;;;;;;;;;5095983;28;20391;-76
2022/08/04 10:19:07;;;;;;;1999.90;999.90;;;;;;;;;;5093409;28;20392;-78
2022/08/04 10:21:38;;;;;;;1999.90;999.90;;;;;;;;;;5064832;27;20391;-76
2022/08/04 10:24:35;;;;;;;1999.90;999.90;;;;;;;;;;5080881;28;20387;-77
2022/08/04 10:27:09;;;;;;;1999.90;999.90;;;;;;;;;;5094341;28;20429;-76
2022/08/04 10:29:38;;;;;;;1999.90;999.90;;;;;;;;;;5080482;28;20383;-76
2022/08/04 10:32:11;;;;;;;1999.90;999.90;;;;;;;;;;5076939;28;20836;-77
2022/08/04 10:34:43;;;;;;;1999.90;999.90;;;;;;;;;;5095117;28;20397;-77
2022/08/04 10:37:18;;;;;;;1999.90;999.90;;;;;;;;;;5062504;28;20395;-76
2022/08/04 10:42:35;;;;;;;1999.90;999.90;;;;;;;;;;5091022;28;20899;-77
2022/08/04 10:45:08;;;;;;;1999.90;999.90;;;;;;;;;;5097776;28;20390;-76
2022/08/04 10:47:41;;;;;;;1999.90;999.90;;;;;;;;;;5099671;28;20393;-77
2022/08/04 10:50:10;;;;;;;1999.90;999.90;;;;;;;;;;5078718;28;20387;-77
2022/08/04 10:52:42;;;;;;;1999.90;999.90;;;;;;;;;;5079921;28;21549;-77
2022/08/04 10:55:12;;;;;;;1999.90;999.90;;;;;;;;;;5077630;28;20390;-77
2022/08/04 10:57:48;;;;;;;1999.90;999.90;;;;;;;;;;5078285;28;20393;-77
2022/08/04 11:00:19;;;;;;;1999.90;999.90;;;;;;;;;;5081337;28;20942;-77
2022/08/04 11:02:51;;;;;;;1999.90;999.90;;;;;;;;;;5099021;28;20411;-77
2022/08/04 11:05:24;;;;;;;1999.90;999.90;;;;;;;;;;5101280;28;20385;-77
2022/08/04 11:07:54;;;;;;;1999.90;999.90;;;;;;;;;;5090255;28;20408;-77
2022/08/04 11:10:22;;;;;;;1999.90;999.90;;;;;;;;;;5075617;28;20411;-77
2022/08/04 11:12:56;;;;;;;1999.90;999.90;;;;;;;;;;5075215;28;21648;-75
2022/08/04 11:15:25;;;;;;;1999.90;999.90;;;;;;;;;;5102666;28;20399;-77
2022/08/04 11:17:55;;;;;;;1999.90;999.90;;;;;;;;;;5095413;28;20957;-76
2022/08/04 11:20:27;;;;;;;1999.90;999.90;;;;;;;;;;5094690;28;20416;-76
2022/08/04 11:23:05;;;;;;;1999.90;999.90;;;;;;;;;;5079451;28;21679;-76
2022/08/04 11:25:36;;;;;;;1999.90;999.90;;;;;;;;;;5094046;28;20917;-75
2022/08/04 11:28:09;;;;;;;1999.90;999.90;;;;;;;;;;5095706;28;20382;-76
2022/08/04 11:30:40;;;;;;;1999.90;999.90;;;;;;;;;;5095955;28;20436;-78
2022/08/04 11:33:10;;;;;;;1999.90;999.90;;;;;;;;;;5104574;28;20411;-77
2022/08/04 11:35:42;;;;;;;1999.90;999.90;;;;;;;;;;5099446;28;20430;-77
2022/08/04 11:38:12;;;;;;;1999.90;999.90;;;;;;;;;;5069797;28;20951;-78
2022/08/04 11:40:41;;;;;;;1999.90;999.90;;;;;;;;;;5090161;28;20481;-77
2022/08/04 11:43:34;;;;;;;1999.90;999.90;;;;;;;;;;5076236;28;20415;-77
2022/08/04 11:46:24;;;;;;;1999.90;999.90;;;;;;;;;;5077524;28;21131;-77
2022/08/04 11:48:56;;;;;;;1999.90;999.90;;;;;;;;;;5080998;28;21262;-77
2022/08/04 11:51:25;;;;;;;1999.90;999.90;;;;;;;;;;5079321;28;20404;-77
2022/08/04 11:53:54;;;;;;;1999.90;999.90;;;;;;;;;;5082739;28;20407;-77
2022/08/04 11:56:22;;;;;;;1999.90;999.90;;;;;;;;;;5086472;28;21189;-77
2022/08/04 11:59:07;;;;;;;1999.90;999.90;;;;;;;;;;5077154;28;20430;-78
2022/08/04 12:01:37;;;;;;;1999.90;999.90;;;;;;;;;;5085492;28;20395;-77
2022/08/04 12:04:07;;;;;;;1999.90;999.90;;;;;;;;;;5093619;28;21202;-77
2022/08/04 12:06:38;;;;;;;1999.90;999.90;;;;;;;;;;5095999;28;20851;-78
2022/08/04 12:09:12;;;;;;;1999.90;999.90;;;;;;;;;;5093289;28;20393;-76
2022/08/04 12:11:46;;;;;;;1999.90;999.90;;;;;;;;;;5075959;28;20911;-78
2022/08/04 12:14:25;;;;;;;1999.90;999.90;;;;;;;;;;5093540;28;20492;-77
2022/08/04 12:16:57;;;;;;;1999.90;999.90;;;;;;;;;;5083362;28;20400;-77
2022/08/04 12:19:29;;;;;;;1999.90;999.90;;;;;;;;;;5075649;28;20389;-77
2022/08/04 12:22:11;;;;;;;1999.90;999.90;;;;;;;;;;5072896;28;20393;-77
2022/08/04 12:24:41;;;;;;;1999.90;999.90;;;;;;;;;;5090362;28;20424;-75
2022/08/04 12:27:12;;;;;;;1999.90;999.90;;;;;;;;;;5082720;28;20399;-76
2022/08/04 12:29:42;;;;;;;1999.90;999.90;;;;;;;;;;5093046;28;20405;-76
2022/08/04 12:32:32;;;;;;;1999.90;999.90;;;;;;;;;;5059766;28;20416;-79
2022/08/04 12:35:03;;;;;;;1999.90;999.90;;;;;;;;;;5078361;28;20395;-77
2022/08/04 12:37:38;;;;;;;1999.90;999.90;;;;;;;;;;5095694;28;20486;-78
2022/08/04 12:40:09;;;;;;;1999.90;999.90;;;;;;;;;;5074896;28;20391;-76
2022/08/04 12:43:00;;;;;;;1999.90;999.90;;;;;;;;;;5080290;28;20404;-77
2022/08/04 12:45:30;;;;;;;1999.90;999.90;;;;;;;;;;5070593;28;20401;-78
2022/08/04 12:47:59;;;;;;;1999.90;999.90;;;;;;;;;;5079531;28;20402;-78
2022/08/04 12:50:27;;;;;;;1999.90;999.90;;;;;;;;;;5081633;28;20398;-77
2022/08/04 12:52:56;;;;;;;1999.90;999.90;;;;;;;;;;5087606;28;20893;-76
2022/08/04 12:55:30;;;;;;;1999.90;999.90;;;;;;;;;;5092647;28;20479;-77
2022/08/04 12:57:58;;;;;;;1999.90;999.90;;;;;;;;;;5100895;28;20855;-78
2022/08/04 13:00:27;;;;;;;1999.90;999.90;;;;;;;;;;5096751;28;20454;-78
2022/08/04 13:03:06;;;;;;;1999.90;999.90;;;;;;;;;;5075821;28;20390;-77
2022/08/04 13:05:38;;;;;;;1999.90;999.90;;;;;;;;;;5082093;28;21004;-77
2022/08/04 13:08:07;;;;;;;1999.90;999.90;;;;;;;;;;5068305;28;20399;-78
2022/08/04 13:10:37;;;;;;;1999.90;999.90;;;;;;;;;;5070392;28;20435;-78
2022/08/04 13:13:05;;;;;;;1999.90;999.90;;;;;;;;;;5089730;28;20433;-78
2022/08/04 13:15:33;;;;;;;1999.90;999.90;;;;;;;;;;5099648;28;20411;-78
2022/08/04 13:18:22;;;;;;;1999.90;999.90;;;;;;;;;;5090409;28;20374;-77
2022/08/04 13:20:56;;;;;;;1999.90;999.90;;;;;;;;;;5092753;28;20978;-77
2022/08/04 13:23:26;;;;;;;1999.90;999.90;;;;;;;;;;5079106;28;20414;-77
2022/08/04 13:26:14;;;;;;;1999.90;999.90;;;;;;;;;;5098356;28;20694;-77
2022/08/04 13:29:03;;;;;;;1999.90;999.90;;;;;;;;;;5073163;28;21282;-78
2022/08/04 13:31:44;;;;;;;1999.90;999.90;;;;;;;;;;5094481;28;20444;-78
2022/08/04 13:34:21;;;;;;;1999.90;999.90;;;;;;;;;;5079822;28;20415;-77
2022/08/04 13:36:49;;;;;;;1999.90;999.90;;;;;;;;;;5076557;28;20404;-78
2022/08/04 13:39:18;;;;;;;1999.90;999.90;;;;;;;;;;5086667;28;20381;-77
2022/08/04 13:41:51;;;;;;;1999.90;999.90;;;;;;;;;;5068478;28;20403;-77
2022/08/04 13:44:27;;;;;;;1999.90;999.90;;;;;;;;;;5102643;28;20936;-77
2022/08/04 13:46:55;;;;;;;1999.90;999.90;;;;;;;;;;5088171;28;20423;-77
2022/08/04 13:49:25;;;;;;;1999.90;999.90;;;;;;;;;;5095120;28;20415;-77
2022/08/04 13:52:12;;;;;;;1999.90;999.90;;;;;;;;;;5092358;28;20375;-77
2022/08/04 13:54:47;;;;;;;1999.90;999.90;;;;;;;;;;5095915;28;20544;-77
2022/08/04 13:57:22;;;;;;;1999.90;999.90;;;;;;;;;;5077540;28;20429;-77
2022/08/04 13:59:52;;;;;;;1999.90;999.90;;;;;;;;;;5079317;28;20401;-77
2022/08/04 14:02:33;;;;;;;1999.90;999.90;;;;;;;;;;5078712;28;21240;-77
2022/08/04 14:05:07;;;;;;;1999.90;999.90;;;;;;;;;;5062187;28;20418;-77
2022/08/04 14:07:46;;;;;;;1999.90;999.90;;;;;;;;;;5074053;28;20475;-77
2022/08/04 14:10:15;;;;;;;1999.90;999.90;;;;;;;;;;5076543;28;20406;-77
2022/08/04 14:12:44;;;;;;;1999.90;999.90;;;;;;;;;;5079425;28;20389;-77
2022/08/04 14:15:30;;;;;;;1999.90;999.90;;;;;;;;;;5105976;28;21022;-77
2022/08/04 14:18:19;;;;;;;1999.90;999.90;;;;;;;;;;5101037;28;21206;-77
2022/08/04 14:21:02;;;;;;;1999.90;999.90;;;;;;;;;;5086182;28;20474;-76
2022/08/04 14:23:38;;;;;;;1999.90;999.90;;;;;;;;;;5080808;28;20394;-77
2022/08/04 14:26:19;;;;;;;1999.90;999.90;;;;;;;;;;5097869;28;20403;-77
2022/08/04 14:28:46;;;;;;;1999.90;999.90;;;;;;;;;;5087947;28;20407;-76